createdAt,value
2023-01-13T00:01:20.373Z,79.66
2023-01-13T00:03:47.406Z,79.54
2023-01-13T00:06:19.665Z,79.58
2023-01-13T00:08:50.133Z,80.12
2023-01-13T00:11:17.129Z,79.81
2023-01-13T00:13:43.888Z,79.98
2023-01-13T00:16:15.521Z,79.15
2023-01-13T00:18:42.752Z,79.46
2023-01-13T00:21:17.878Z,79.93
2023-01-13T00:23:45.513Z,78.69
2023-01-13T00:26:18.323Z,79.95
2023-01-13T00:28:45.092Z,81.32
2023-01-13T00:31:17.586Z,81.08
2023-01-13T00:33:44.290Z,80.83
2023-01-13T00:36:13.518Z,80.47
2023-01-13T00:38:42.834Z,81.53
2023-01-13T00:41:15.530Z,81.39
2023-01-13T00:43:42.602Z,80.75
2023-01-13T00:46:11.679Z,80.11
2023-01-13T00:48:38.934Z,81.29
2023-01-13T00:51:08.655Z,82.41
2023-01-13T00:53:37.978Z,81.61
2023-01-13T00:56:16.880Z,81.93
2023-01-13T00:58:45.800Z,84.24
2023-01-13T01:01:21.713Z,87.28
2023-01-13T01:03:49.964Z,87.79
2023-01-13T01:06:21.945Z,85.52
2023-01-13T01:08:48.869Z,83.48
2023-01-13T01:11:21.918Z,83.73
2023-01-13T01:13:52.001Z,82.76
2023-01-13T01:16:20.851Z,81.95
2023-01-13T01:18:49.169Z,82.04
2023-01-13T01:21:16.675Z,82.30
2023-01-13T01:23:43.305Z,82.25
2023-01-13T01:26:24.900Z,81.55
2023-01-13T01:28:52.404Z,81.80
2023-01-13T01:31:24.302Z,81.81
2023-01-13T01:33:51.641Z,81.92
2023-01-13T01:36:20.067Z,81.76
2023-01-13T01:38:47.741Z,82.69
2023-01-13T01:41:19.537Z,82.90
2023-01-13T01:44:00.053Z,82.21
2023-01-13T01:46:31.976Z,82.34
2023-01-13T01:49:22.204Z,81.12
2023-01-13T01:51:56.160Z,82.02
2023-01-13T01:54:30.739Z,81.87
2023-01-13T01:56:58.126Z,81.43
2023-01-13T01:59:32.481Z,81.18
2023-01-13T02:01:59.524Z,81.69
2023-01-13T02:04:33.121Z,81.73
2023-01-13T02:07:01.358Z,82.33
2023-01-13T02:09:28.010Z,81.01
2023-01-13T02:12:13.160Z,81.36
2023-01-13T02:14:41.446Z,80.44
2023-01-13T02:17:27.244Z,81.71
2023-01-13T02:20:31.223Z,81.12
2023-01-13T02:23:41.452Z,80.63
2023-01-13T02:26:34.138Z,79.55
2023-01-13T02:29:53.862Z,79.68
2023-01-13T02:32:35.588Z,79.44
2023-01-13T02:35:10.450Z,81.53
2023-01-13T02:37:41.873Z,82.21
2023-01-13T02:40:25.548Z,83.57
2023-01-13T02:43:24.590Z,83.08
2023-01-13T02:45:57.050Z,82.25
2023-01-13T02:48:26.739Z,82.40
2023-01-13T02:51:22.160Z,83.44
2023-01-13T02:54:03.658Z,84.03
2023-01-13T02:56:31.698Z,83.59
2023-01-13T02:59:00.132Z,84.60
2023-01-13T03:01:27.426Z,83.31
2023-01-13T03:03:54.073Z,83.80
2023-01-13T03:06:26.772Z,84.16
2023-01-13T03:09:03.565Z,84.16
2023-01-13T03:11:38.152Z,83.41
2023-01-13T03:14:24.233Z,83.01
2023-01-13T03:17:05.566Z,82.86
2023-01-13T03:20:07.450Z,83.56
2023-01-13T03:22:42.886Z,83.40
2023-01-13T03:25:26.379Z,83.02
2023-01-13T03:27:55.638Z,84.22
2023-01-13T03:30:32.651Z,84.21
2023-01-13T03:33:06.677Z,84.23
2023-01-13T03:35:40.761Z,84.73
2023-01-13T03:38:13.526Z,84.12
2023-01-13T03:40:50.755Z,84.10
2023-01-13T03:43:42.165Z,83.51
2023-01-13T03:46:16.366Z,83.14
2023-01-13T03:48:46.125Z,85.09
2023-01-13T03:51:17.956Z,84.48
2023-01-13T03:53:50.647Z,83.57
2023-01-13T03:56:36.249Z,83.59
2023-01-13T03:59:07.423Z,83.32
2023-01-13T04:01:42.186Z,83.97
2023-01-13T04:04:54.207Z,83.83
2023-01-13T04:07:37.626Z,81.92
2023-01-13T04:10:08.439Z,82.08
2023-01-13T04:12:59.770Z,81.88
2023-01-13T04:15:29.695Z,82.25
2023-01-13T04:18:08.709Z,82.46
2023-01-13T04:20:35.507Z,82.68
2023-01-13T04:23:02.331Z,82.34
2023-01-13T04:25:29.118Z,83.18
2023-01-13T04:27:55.668Z,84.61
2023-01-13T04:30:22.314Z,85.10
2023-01-13T04:32:49.159Z,85.71
2023-01-13T04:35:16.068Z,85.55
2023-01-13T04:37:42.612Z,85.35
2023-01-13T04:40:09.766Z,85.88
2023-01-13T04:42:36.328Z,84.58
2023-01-13T04:45:03.315Z,85.13
2023-01-13T04:47:29.994Z,84.04
2023-01-13T04:49:56.609Z,82.87
2023-01-13T04:52:23.167Z,82.33
2023-01-13T04:54:49.787Z,82.05
2023-01-13T04:57:16.328Z,83.00
2023-01-13T04:59:42.910Z,83.64
2023-01-13T05:02:09.620Z,85.11
2023-01-13T05:04:36.336Z,84.75
2023-01-13T05:07:02.947Z,83.74
2023-01-13T05:09:29.613Z,85.20
2023-01-13T05:12:14.541Z,84.73
2023-01-13T05:15:00.022Z,84.12
2023-01-13T05:17:27.008Z,83.00
2023-01-13T05:19:53.570Z,82.87
2023-01-13T05:22:38.839Z,83.00
2023-01-13T05:25:24.369Z,82.97
2023-01-13T05:27:53.383Z,83.76
2023-01-13T05:30:29.612Z,84.36
2023-01-13T05:32:56.862Z,85.26
2023-01-13T05:35:24.022Z,85.11
2023-01-13T05:37:51.384Z,84.56
2023-01-13T05:40:37.359Z,84.42
2023-01-13T05:43:19.890Z,84.20
2023-01-13T05:45:47.471Z,84.69
2023-01-13T05:48:14.553Z,84.22
2023-01-13T05:50:41.160Z,83.89
2023-01-13T05:53:07.949Z,83.47
2023-01-13T05:55:34.717Z,83.59
2023-01-13T05:58:01.342Z,83.64
2023-01-13T06:00:28.067Z,83.66
2023-01-13T06:02:54.844Z,84.00
2023-01-13T06:05:21.441Z,83.87
2023-01-13T06:07:48.061Z,84.01
2023-01-13T06:10:14.744Z,84.02
2023-01-13T06:12:41.299Z,83.36
2023-01-13T06:15:08.365Z,82.70
2023-01-13T06:17:34.980Z,83.27
2023-01-13T06:20:01.628Z,82.96
2023-01-13T06:22:32.938Z,83.41
2023-01-13T06:24:59.625Z,84.24
2023-01-13T06:27:26.233Z,84.52
2023-01-13T06:29:52.913Z,84.65
2023-01-13T06:32:23.508Z,83.70
2023-01-13T06:34:55.546Z,84.43
2023-01-13T06:37:26.089Z,84.28
2023-01-13T06:39:58.487Z,84.10
2023-01-13T06:42:47.000Z,84.35
2023-01-13T06:45:13.875Z,84.54
2023-01-13T06:47:41.048Z,83.80
2023-01-13T06:50:08.191Z,82.59
2023-01-13T06:52:34.935Z,84.38
2023-01-13T06:55:01.759Z,83.33
2023-01-13T06:57:28.311Z,83.04
2023-01-13T06:59:54.924Z,82.76
2023-01-13T07:02:21.523Z,82.22
2023-01-13T07:04:48.786Z,82.76
2023-01-13T07:07:15.396Z,82.93
2023-01-13T07:09:41.953Z,82.38
2023-01-13T07:12:08.586Z,82.74
2023-01-13T07:14:54.269Z,81.74
2023-01-13T07:17:25.367Z,81.54
2023-01-13T07:19:53.097Z,80.87
2023-01-13T07:22:19.784Z,81.92
2023-01-13T07:24:46.448Z,81.07
2023-01-13T07:27:13.104Z,81.79
2023-01-13T07:29:39.810Z,81.92
2023-01-13T07:32:07.779Z,82.70
2023-01-13T07:34:34.434Z,82.33
2023-01-13T07:37:01.789Z,82.67
2023-01-13T07:39:28.440Z,81.78
2023-01-13T07:42:13.416Z,81.96
2023-01-13T07:44:40.080Z,81.14
2023-01-13T07:47:08.544Z,81.22
2023-01-13T07:49:35.255Z,81.25
2023-01-13T07:52:02.235Z,81.81
2023-01-13T07:54:40.131Z,80.81
2023-01-13T07:57:07.851Z,80.18
2023-01-13T07:59:34.715Z,81.24
2023-01-13T08:02:01.394Z,80.62
2023-01-13T08:04:28.134Z,80.75
2023-01-13T08:06:54.668Z,80.62
2023-01-13T08:09:21.401Z,81.48
2023-01-13T08:12:07.919Z,80.32
2023-01-13T08:14:34.584Z,80.33
2023-01-13T08:17:01.133Z,80.04
2023-01-13T08:19:27.788Z,80.80
2023-01-13T08:21:54.367Z,80.07
2023-01-13T08:24:20.974Z,80.38
2023-01-13T08:26:47.571Z,80.00
2023-01-13T08:29:15.157Z,79.90
2023-01-13T08:31:41.887Z,80.17
2023-01-13T08:34:09.076Z,80.68
2023-01-13T08:36:35.702Z,81.03
2023-01-13T08:39:02.424Z,80.83
2023-01-13T08:41:47.607Z,80.98
2023-01-13T08:44:14.184Z,80.79
2023-01-13T08:46:41.800Z,81.03
2023-01-13T08:49:08.643Z,81.11
2023-01-13T08:51:35.541Z,80.83
2023-01-13T08:54:02.418Z,80.40
2023-01-13T08:56:35.286Z,79.73
2023-01-13T08:59:02.878Z,80.12
2023-01-13T09:01:32.565Z,80.02
2023-01-13T09:03:59.237Z,79.76
2023-01-13T09:06:25.956Z,79.97
2023-01-13T09:08:52.683Z,80.06
2023-01-13T09:11:49.224Z,80.70
2023-01-13T09:14:23.862Z,80.22
2023-01-13T09:16:50.588Z,81.17
2023-01-13T09:19:17.217Z,80.39
2023-01-13T09:21:43.815Z,80.67
2023-01-13T09:24:10.497Z,80.42
2023-01-13T09:26:37.985Z,80.99
2023-01-13T09:29:05.083Z,80.50
2023-01-13T09:31:34.534Z,80.92
2023-01-13T09:34:20.742Z,80.42
2023-01-13T09:36:47.895Z,80.68
2023-01-13T09:39:14.959Z,80.07
2023-01-13T09:42:03.601Z,80.18
2023-01-13T09:44:55.430Z,80.39
2023-01-13T09:47:45.752Z,80.16
2023-01-13T09:50:15.170Z,80.86
2023-01-13T09:52:43.079Z,80.73
2023-01-13T09:55:18.942Z,80.80
2023-01-13T09:57:45.686Z,80.88
2023-01-13T10:00:39.282Z,80.56
2023-01-13T10:03:18.178Z,80.06
2023-01-13T10:05:50.837Z,80.19
2023-01-13T10:08:24.461Z,79.59
2023-01-13T10:10:59.739Z,79.88
2023-01-13T10:13:30.672Z,79.75
2023-01-13T10:16:42.025Z,79.79
2023-01-13T10:19:26.591Z,80.00
2023-01-13T10:22:12.683Z,79.55
2023-01-13T10:24:58.259Z,79.82
2023-01-13T10:27:39.170Z,79.95
2023-01-13T10:30:21.238Z,79.67
2023-01-13T10:32:55.176Z,79.57
2023-01-13T10:36:00.378Z,79.64
2023-01-13T10:38:40.399Z,80.17
2023-01-13T10:41:15.842Z,80.01
2023-01-13T10:44:08.623Z,80.04
2023-01-13T10:46:52.198Z,79.19
2023-01-13T10:49:30.984Z,79.51
2023-01-13T10:51:57.720Z,80.67
2023-01-13T10:54:25.936Z,82.06
2023-01-13T10:57:19.544Z,82.81
2023-01-13T10:59:46.785Z,82.51
2023-01-13T11:02:27.592Z,80.59
2023-01-13T11:04:54.333Z,81.60
2023-01-13T11:07:28.827Z,82.82
2023-01-13T11:10:17.765Z,81.23
2023-01-13T11:12:52.829Z,81.03
2023-01-13T11:15:24.546Z,80.56
2023-01-13T11:18:01.609Z,80.42
2023-01-13T11:20:34.020Z,80.99
2023-01-13T11:23:14.519Z,80.63
2023-01-13T11:25:49.049Z,79.95
2023-01-13T11:28:39.632Z,79.66
2023-01-13T11:31:18.558Z,80.17
2023-01-13T11:33:52.846Z,80.94
2023-01-13T11:36:34.620Z,80.56
2023-01-13T11:39:21.321Z,81.11
2023-01-13T11:42:15.529Z,82.71
2023-01-13T11:44:49.670Z,83.96
2023-01-13T11:47:20.895Z,84.04
2023-01-13T11:49:48.628Z,83.15
2023-01-13T11:52:39.964Z,82.28
2023-01-13T11:55:24.777Z,81.64
2023-01-13T11:57:56.788Z,81.65
2023-01-13T12:00:29.067Z,83.57
2023-01-13T12:03:32.450Z,84.17
2023-01-13T12:06:17.164Z,85.08
2023-01-13T12:09:11.824Z,84.13
2023-01-13T12:12:22.694Z,82.57
2023-01-13T12:15:30.993Z,83.00
2023-01-13T12:18:30.400Z,84.94
2023-01-13T12:21:15.253Z,86.68
2023-01-13T12:24:09.440Z,87.46
2023-01-13T12:26:41.789Z,87.44
2023-01-13T12:29:19.493Z,87.07
2023-01-13T12:31:50.489Z,86.28
2023-01-13T12:35:00.237Z,86.25
2023-01-13T12:37:42.873Z,86.49
2023-01-13T12:40:24.568Z,86.16
2023-01-13T12:43:23.631Z,86.29
2023-01-13T12:45:50.330Z,84.71
2023-01-13T12:48:56.843Z,84.14
2023-01-13T12:51:33.994Z,84.32
2023-01-13T12:54:02.466Z,85.47
2023-01-13T12:56:44.718Z,86.52
2023-01-13T12:59:17.592Z,86.43
2023-01-13T13:01:48.618Z,85.71
2023-01-13T13:04:20.896Z,86.12
2023-01-13T13:06:56.000Z,84.39
2023-01-13T13:09:32.163Z,84.68
2023-01-13T13:12:37.425Z,83.95
2023-01-13T13:15:18.734Z,84.48
2023-01-13T13:18:00.073Z,82.77
2023-01-13T13:20:54.213Z,81.95
2023-01-13T13:23:27.891Z,81.86
2023-01-13T13:26:24.829Z,81.77
2023-01-13T13:29:34.741Z,81.06
2023-01-13T13:32:12.911Z,80.78
2023-01-13T13:34:53.950Z,81.27
2023-01-13T13:38:10.044Z,81.34
2023-01-13T13:41:03.068Z,82.36
2023-01-13T13:43:50.775Z,83.61
2023-01-13T13:46:46.584Z,84.95
2023-01-13T13:49:21.718Z,85.50
2023-01-13T13:52:01.092Z,84.03
2023-01-13T13:54:28.112Z,84.77
2023-01-13T13:56:54.778Z,84.53
2023-01-13T13:59:24.825Z,84.59
2023-01-13T14:02:03.904Z,84.91
2023-01-13T14:04:36.081Z,84.28
2023-01-13T14:07:18.295Z,83.51
2023-01-13T14:09:48.193Z,84.47
2023-01-13T14:12:27.448Z,85.45
2023-01-13T14:14:59.864Z,86.49
2023-01-13T14:17:29.203Z,85.81
2023-01-13T14:20:05.157Z,85.15
2023-01-13T14:22:33.464Z,85.34
2023-01-13T14:25:01.839Z,84.94
2023-01-13T14:27:30.059Z,85.99
2023-01-13T14:30:00.425Z,85.01
2023-01-13T14:32:34.792Z,84.97
2023-01-13T14:35:06.490Z,85.52
2023-01-13T14:37:38.517Z,85.19
2023-01-13T14:40:06.120Z,85.80
2023-01-13T14:42:35.400Z,85.95
2023-01-13T14:45:03.217Z,84.81
2023-01-13T14:47:33.776Z,84.88
2023-01-13T14:50:21.966Z,84.57
2023-01-13T14:52:57.192Z,86.06
2023-01-13T14:55:26.772Z,85.43
2023-01-13T14:58:13.748Z,84.92
2023-01-13T15:00:40.431Z,84.98
2023-01-13T15:03:08.396Z,86.28
2023-01-13T15:05:39.661Z,85.92
2023-01-13T15:08:13.916Z,86.12
2023-01-13T15:11:00.009Z,85.81
2023-01-13T15:13:48.097Z,86.24
2023-01-13T15:16:24.958Z,84.33
2023-01-13T15:18:52.616Z,85.37
2023-01-13T15:21:19.562Z,84.89
2023-01-13T15:23:47.327Z,85.77
2023-01-13T15:26:18.847Z,86.27
2023-01-13T15:28:45.848Z,86.47
2023-01-13T15:31:12.445Z,86.44
2023-01-13T15:33:39.272Z,85.62
2023-01-13T15:36:17.512Z,85.34
2023-01-13T15:38:44.128Z,85.93
2023-01-13T15:41:10.706Z,85.57
2023-01-13T15:43:55.739Z,86.16
2023-01-13T15:46:37.903Z,86.85
2023-01-13T15:49:26.651Z,87.73
2023-01-13T15:51:53.275Z,87.26
2023-01-13T15:54:22.820Z,86.43
2023-01-13T15:56:49.488Z,86.14
2023-01-13T15:59:21.129Z,85.17
2023-01-13T16:01:47.962Z,83.42
2023-01-13T16:04:14.607Z,83.83
2023-01-13T16:06:41.660Z,85.88
2023-01-13T16:09:12.344Z,86.35
2023-01-13T16:11:39.059Z,86.22
2023-01-13T16:14:05.648Z,87.16
2023-01-13T16:16:32.250Z,87.66
2023-01-13T16:18:58.859Z,87.70
2023-01-13T16:21:25.616Z,88.00
2023-01-13T16:23:52.461Z,87.30
2023-01-13T16:26:25.079Z,85.82
2023-01-13T16:28:54.850Z,85.67
2023-01-13T16:31:32.031Z,86.20
2023-01-13T16:34:01.247Z,87.70
2023-01-13T16:36:30.499Z,87.56
2023-01-13T16:38:57.471Z,87.44
2023-01-13T16:41:27.141Z,87.34
2023-01-13T16:43:54.332Z,86.11
2023-01-13T16:46:29.206Z,87.03
2023-01-13T16:49:01.295Z,87.06
2023-01-13T16:51:28.005Z,86.98
2023-01-13T16:53:54.573Z,87.80
2023-01-13T16:56:25.304Z,87.38
2023-01-13T16:58:53.771Z,87.23
2023-01-13T17:01:26.340Z,87.34
2023-01-13T17:03:54.339Z,87.09
2023-01-13T17:06:24.743Z,87.21
2023-01-13T17:08:53.157Z,86.30
2023-01-13T17:11:20.626Z,86.24
2023-01-13T17:13:47.425Z,85.40
2023-01-13T17:16:18.064Z,84.57
2023-01-13T17:18:44.804Z,85.94
2023-01-13T17:21:11.528Z,85.67
2023-01-13T17:23:38.169Z,84.15
2023-01-13T17:26:05.148Z,85.10
2023-01-13T17:28:31.808Z,85.38
2023-01-13T17:30:58.455Z,84.59
2023-01-13T17:33:25.101Z,83.06
2023-01-13T17:35:51.984Z,82.37
2023-01-13T17:38:18.610Z,82.55
2023-01-13T17:40:45.292Z,82.31
2023-01-13T17:43:11.978Z,83.09
2023-01-13T17:45:41.073Z,83.03
2023-01-13T17:48:07.762Z,82.96
2023-01-13T17:50:34.881Z,81.58
2023-01-13T17:53:01.625Z,82.01
2023-01-13T17:55:28.220Z,81.31
2023-01-13T17:57:54.962Z,80.96
2023-01-13T18:00:21.995Z,80.78
2023-01-13T18:02:48.595Z,82.05
2023-01-13T18:05:15.359Z,83.89
2023-01-13T18:07:41.992Z,84.12
2023-01-13T18:10:09.322Z,83.70
2023-01-13T18:12:35.968Z,83.11
2023-01-13T18:15:02.731Z,82.46
2023-01-13T18:17:29.661Z,81.79
2023-01-13T18:20:14.938Z,80.83
2023-01-13T18:23:00.225Z,81.30
2023-01-13T18:25:45.231Z,80.42
2023-01-13T18:28:11.807Z,81.08
2023-01-13T18:30:38.597Z,82.97
2023-01-13T18:33:05.267Z,83.72
2023-01-13T18:35:31.800Z,84.13
2023-01-13T18:37:58.406Z,83.52
2023-01-13T18:40:25.248Z,84.42
2023-01-13T18:42:52.221Z,85.04
2023-01-13T18:45:24.716Z,83.90
2023-01-13T18:47:52.012Z,83.70
2023-01-13T18:50:19.044Z,83.58
2023-01-13T18:52:45.935Z,83.63
2023-01-13T18:55:12.891Z,83.03
2023-01-13T18:57:40.491Z,82.97
2023-01-13T19:00:11.647Z,82.85
2023-01-13T19:02:38.885Z,82.63
2023-01-13T19:05:06.103Z,82.34
2023-01-13T19:07:35.482Z,81.54
2023-01-13T19:10:04.342Z,81.24
2023-01-13T19:12:31.222Z,81.38
2023-01-13T19:14:58.404Z,80.61
2023-01-13T19:17:27.161Z,81.71
2023-01-13T19:19:55.613Z,81.80
2023-01-13T19:22:31.140Z,81.63
2023-01-13T19:24:58.779Z,81.27
2023-01-13T19:27:27.527Z,80.92
2023-01-13T19:29:57.447Z,81.51
2023-01-13T19:32:25.215Z,81.87
2023-01-13T19:34:51.939Z,82.38
2023-01-13T19:37:18.992Z,82.35
2023-01-13T19:39:45.635Z,82.74
2023-01-13T19:42:31.224Z,82.28
2023-01-13T19:45:16.569Z,82.96
2023-01-13T19:47:45.363Z,84.10
2023-01-13T19:50:13.046Z,83.15
2023-01-13T19:52:39.933Z,84.20
2023-01-13T19:55:06.941Z,83.66
2023-01-13T19:57:33.629Z,84.27
2023-01-13T20:00:00.250Z,84.53
2023-01-13T20:02:31.512Z,85.09
2023-01-13T20:05:00.980Z,85.24
2023-01-13T20:07:30.401Z,85.13
2023-01-13T20:09:57.552Z,84.58
2023-01-13T20:12:25.593Z,85.32
2023-01-13T20:14:52.892Z,85.05
2023-01-13T20:17:21.585Z,84.83
2023-01-13T20:19:48.177Z,85.28
2023-01-13T20:22:14.984Z,85.01
2023-01-13T20:24:41.567Z,83.97
2023-01-13T20:27:08.374Z,84.37
2023-01-13T20:29:35.279Z,85.34
2023-01-13T20:32:02.349Z,85.46
2023-01-13T20:34:29.064Z,85.52
2023-01-13T20:36:55.725Z,84.95
2023-01-13T20:39:26.140Z,84.93
2023-01-13T20:42:11.419Z,83.50
2023-01-13T20:44:38.070Z,84.54
2023-01-13T20:47:05.231Z,84.70
2023-01-13T20:49:31.898Z,84.18
2023-01-13T20:51:58.890Z,84.67
2023-01-13T20:54:26.214Z,83.32
2023-01-13T20:56:53.365Z,82.48
2023-01-13T20:59:20.221Z,83.73
2023-01-13T21:01:46.968Z,82.68
2023-01-13T21:04:13.559Z,82.46
2023-01-13T21:06:41.560Z,82.76
2023-01-13T21:09:08.897Z,82.62
2023-01-13T21:11:54.588Z,81.12
2023-01-13T21:14:42.562Z,81.25
2023-01-13T21:17:29.914Z,81.45
2023-01-13T21:19:56.856Z,81.87
2023-01-13T21:22:23.800Z,80.83
2023-01-13T21:24:50.363Z,80.76
2023-01-13T21:27:18.285Z,81.23
2023-01-13T21:29:46.250Z,80.14
2023-01-13T21:32:13.094Z,80.51
2023-01-13T21:34:39.716Z,79.54
2023-01-13T21:37:06.301Z,80.50
2023-01-13T21:39:33.103Z,80.04
2023-01-13T21:42:18.031Z,79.88
2023-01-13T21:45:03.331Z,79.27
2023-01-13T21:47:48.467Z,78.99
2023-01-13T21:50:21.647Z,80.07
2023-01-13T21:52:49.667Z,80.02
2023-01-13T21:55:28.401Z,79.50
2023-01-13T21:57:56.591Z,80.70
2023-01-13T22:00:28.679Z,79.84
2023-01-13T22:02:56.131Z,79.51
2023-01-13T22:05:24.949Z,79.65
2023-01-13T22:07:52.333Z,78.87
2023-01-13T22:10:21.979Z,78.81
2023-01-13T22:12:48.959Z,79.78
2023-01-13T22:15:16.395Z,80.20
2023-01-13T22:17:45.447Z,80.60
2023-01-13T22:20:13.362Z,80.05
2023-01-13T22:22:40.069Z,79.59
2023-01-13T22:25:09.743Z,79.49
2023-01-13T22:27:48.204Z,79.51
2023-01-13T22:30:21.786Z,79.84
2023-01-13T22:32:48.498Z,80.54
2023-01-13T22:35:15.952Z,79.45
2023-01-13T22:37:43.183Z,79.87
2023-01-13T22:40:12.056Z,79.94
2023-01-13T22:42:39.904Z,79.91
2023-01-13T22:45:09.904Z,79.51
2023-01-13T22:47:37.197Z,78.70
2023-01-13T22:50:05.082Z,78.87
2023-01-13T22:52:33.398Z,79.49
2023-01-13T22:55:00.854Z,79.54
2023-01-13T22:57:35.919Z,79.17
2023-01-13T23:00:06.320Z,79.35
2023-01-13T23:02:34.572Z,78.13
2023-01-13T23:05:01.827Z,78.89
2023-01-13T23:07:28.831Z,79.12
2023-01-13T23:09:55.524Z,79.67
2023-01-13T23:12:22.451Z,79.20
2023-01-13T23:14:49.142Z,78.64
2023-01-13T23:17:15.681Z,78.99
2023-01-13T23:19:42.290Z,78.69
2023-01-13T23:22:08.891Z,77.71
2023-01-13T23:24:35.539Z,78.34
2023-01-13T23:27:02.149Z,78.44
2023-01-13T23:29:28.774Z,78.48
2023-01-13T23:31:55.340Z,78.42
2023-01-13T23:34:21.983Z,78.28
2023-01-13T23:36:48.684Z,78.84
2023-01-13T23:39:15.280Z,78.61
2023-01-13T23:41:41.817Z,79.00
2023-01-13T23:44:09.555Z,78.69
2023-01-13T23:46:36.128Z,79.50
2023-01-13T23:49:03.644Z,78.57
2023-01-13T23:51:30.676Z,78.77
2023-01-13T23:53:59.049Z,78.44
2023-01-13T23:56:28.465Z,79.38
2023-01-13T23:58:55.694Z,79.15
